Time;durP1;ratioP1;P1;durP2;ratioP2;P2;SDS_P1;SDS_P2;PMS_P1;PMS_P2;Temp;Humidity;BMP_temperature;BMP_pressure;BME280_temperature;BME280_humidity;BME280_pressure;Samples;Min_cycle;Max_cycle;Signal;HPM_P1;HPM_P2
2022/01/05 05:00:14;;;;;;;0.60;0.60;;;5.90;99.90;;;;;;6056023;23;20398;31
2022/01/05 05:02:41;;;;;;;0.60;0.60;;;6.00;99.90;;;;;;4971640;28;20467;-74
2022/01/05 05:05:08;;;;;;;1.00;1.00;;;6.10;99.90;;;;;;4964054;29;20487;-74
2022/01/05 05:07:35;;;;;;;0.87;0.87;;;6.10;99.90;;;;;;4962703;29;20452;-73
2022/01/05 05:10:02;;;;;;;0.90;0.90;;;6.10;99.90;;;;;;4963218;29;20467;-72
2022/01/05 05:12:28;;;;;;;1.20;1.10;;;6.20;99.90;;;;;;4968202;29;20462;-73
2022/01/05 05:14:55;;;;;;;1.00;1.00;;;6.20;99.90;;;;;;4965796;29;20456;-73
2022/01/05 05:17:23;;;;;;;1.67;1.50;;;6.20;99.90;;;;;;4959340;29;20466;-73
2022/01/05 05:19:50;;;;;;;0.70;0.70;;;6.00;99.90;;;;;;4959155;28;20463;-74
2022/01/05 05:22:16;;;;;;;0.70;0.70;;;5.60;99.90;;;;;;4959617;29;20480;-74
2022/01/05 05:24:43;;;;;;;2.27;1.10;;;5.00;99.90;;;;;;4958976;29;20476;-74
2022/01/05 05:27:10;;;;;;;1.23;1.23;;;4.90;99.90;;;;;;4958696;29;20821;-73
2022/01/05 05:29:36;;;;;;;1.20;1.20;;;4.70;99.90;;;;;;4958862;29;20452;-73
2022/01/05 05:32:05;;;;;;;1.10;1.10;;;4.60;99.90;;;;;;4958920;29;20486;-73
2022/01/05 05:34:33;;;;;;;1.23;1.23;;;4.30;99.90;;;;;;4959365;29;20456;-74
2022/01/05 05:36:59;;;;;;;1.13;1.13;;;3.90;99.90;;;;;;4958699;29;20473;-73
2022/01/05 05:39:26;;;;;;;1.60;1.60;;;3.80;99.90;;;;;;4958992;29;20460;-73
2022/01/05 05:41:53;;;;;;;1.47;1.47;;;3.70;99.90;;;;;;4958771;29;20488;-74
2022/01/05 05:44:20;;;;;;;1.90;1.80;;;3.70;99.90;;;;;;4958983;29;20460;-73
2022/01/05 05:46:47;;;;;;;2.03;1.90;;;3.60;99.90;;;;;;4958211;29;20460;-73
2022/01/05 05:49:14;;;;;;;2.00;1.90;;;3.50;99.90;;;;;;4958448;29;20456;-74
2022/01/05 05:51:42;;;;;;;2.23;2.13;;;3.50;99.90;;;;;;4958204;29;20480;-73
2022/01/05 05:54:09;;;;;;;2.73;2.53;;;3.60;99.90;;;;;;4958353;29;20467;-74
2022/01/05 05:56:36;;;;;;;2.00;1.90;;;3.60;99.90;;;;;;4957953;29;20456;-74
2022/01/05 05:59:03;;;;;;;2.67;2.47;;;3.70;99.90;;;;;;4958067;29;20456;-74
2022/01/05 06:01:30;;;;;;;2.83;2.57;;;3.80;99.90;;;;;;4957866;29;20490;-74
2022/01/05 06:03:56;;;;;;;2.60;2.50;;;3.80;99.90;;;;;;4958013;29;20483;-71
2022/01/05 06:06:23;;;;;;;3.27;3.07;;;3.80;99.90;;;;;;4957810;28;20483;-70
2022/01/05 06:08:51;;;;;;;3.43;2.57;;;4.30;99.90;;;;;;4957748;29;20456;-70
2022/01/05 06:11:18;;;;;;;2.97;2.87;;;4.60;99.90;;;;;;4957802;29;20555;-70
2022/01/05 06:13:45;;;;;;;2.50;2.37;;;4.80;99.90;;;;;;4957521;29;20467;-69
2022/01/05 06:16:12;;;;;;;3.03;2.83;;;5.00;99.90;;;;;;4957723;29;20814;-71
2022/01/05 06:18:38;;;;;;;2.57;2.37;;;5.20;99.90;;;;;;4957407;29;20460;-71
2022/01/05 06:21:05;;;;;;;2.40;2.20;;;5.40;99.90;;;;;;4957210;29;20468;-73
2022/01/05 06:23:32;;;;;;;2.33;2.23;;;5.60;99.90;;;;;;4957887;29;20486;-72
2022/01/05 06:26:00;;;;;;;2.70;2.50;;;5.60;99.90;;;;;;4957673;29;20503;-73
2022/01/05 06:28:27;;;;;;;2.40;2.30;;;5.40;99.90;;;;;;4957748;29;20460;-72
2022/01/05 06:30:53;;;;;;;2.87;2.67;;;5.30;99.90;;;;;;4957588;29;20979;-72
2022/01/05 06:33:20;;;;;;;2.60;2.40;;;5.10;99.90;;;;;;4957933;29;20456;-73
2022/01/05 06:35:47;;;;;;;4.23;3.93;;;4.90;99.90;;;;;;4957719;29;20451;-72
2022/01/05 06:38:13;;;;;;;2.37;2.27;;;4.80;99.90;;;;;;4956919;29;20829;-72
2022/01/05 06:40:40;;;;;;;4.23;2.63;;;4.80;99.90;;;;;;4957926;29;20487;-73
2022/01/05 06:43:08;;;;;;;3.07;2.80;;;4.60;99.90;;;;;;4959050;29;20958;-72
2022/01/05 06:45:35;;;;;;;2.70;2.50;;;4.60;99.90;;;;;;4971752;29;20484;-72
2022/01/05 06:48:02;;;;;;;2.50;2.40;;;4.50;99.90;;;;;;4960383;29;20963;-72
2022/01/05 06:50:29;;;;;;;2.90;2.43;;;4.50;99.90;;;;;;4957557;29;20464;-72
2022/01/05 06:52:56;;;;;;;2.60;2.43;;;4.50;99.90;;;;;;4957400;29;20456;-73
2022/01/05 06:55:24;;;;;;;4.00;2.33;;;4.50;99.90;;;;;;4956962;29;20456;-72
2022/01/05 06:57:51;;;;;;;2.10;2.00;;;4.40;99.90;;;;;;4957093;29;20460;-73
2022/01/05 07:00:21;;;;;;;2.27;1.87;;;4.50;99.90;;;;;;4956669;29;21005;-73
2022/01/05 07:02:48;;;;;;;1.90;1.90;;;4.40;99.90;;;;;;4957191;29;20464;-72
2022/01/05 07:05:15;;;;;;;2.30;2.00;;;4.40;99.90;;;;;;4956778;29;20982;-72
2022/01/05 07:07:41;;;;;;;2.97;2.10;;;4.30;99.90;;;;;;4957057;29;20459;-74
2022/01/05 07:10:10;;;;;;;2.40;2.20;;;4.30;99.90;;;;;;4957066;29;20464;-75
2022/01/05 07:12:38;;;;;;;2.47;2.37;;;4.30;99.90;;;;;;4956161;29;20943;-74
2022/01/05 07:15:06;;;;;;;2.20;2.10;;;4.20;99.90;;;;;;4956818;28;20970;-73
2022/01/05 07:17:34;;;;;;;1.80;1.70;;;4.20;99.90;;;;;;4957457;28;20447;-74
2022/01/05 07:20:01;;;;;;;2.07;1.97;;;4.10;99.90;;;;;;4963049;28;20908;-74
2022/01/05 07:22:28;;;;;;;1.70;1.70;;;4.10;99.90;;;;;;4963273;29;20479;-74
2022/01/05 07:24:56;;;;;;;2.00;1.90;;;4.00;99.90;;;;;;4963236;28;20470;-74
2022/01/05 07:27:22;;;;;;;3.10;2.10;;;3.90;99.90;;;;;;4963315;28;20444;-74
2022/01/05 07:29:49;;;;;;;2.67;2.50;;;3.90;99.90;;;;;;4963604;28;20462;-74
2022/01/05 07:32:16;;;;;;;2.83;2.63;;;3.90;99.90;;;;;;4963701;28;20975;-72
2022/01/05 07:34:44;;;;;;;7.43;2.57;;;3.90;99.90;;;;;;4963096;29;20448;-72
2022/01/05 07:37:12;;;;;;;2.13;1.90;;;3.70;99.90;;;;;;4963001;29;20807;-72
2022/01/05 07:39:39;;;;;;;2.80;2.60;;;3.70;99.90;;;;;;4962756;29;20810;-72
2022/01/05 07:42:07;;;;;;;2.53;2.33;;;3.70;99.90;;;;;;4962573;29;20485;-72
2022/01/05 07:44:34;;;;;;;5.37;2.63;;;3.60;99.90;;;;;;4963008;28;20440;-73
2022/01/05 07:47:01;;;;;;;6.10;2.60;;;3.50;99.90;;;;;;4963967;28;20487;-72
2022/01/05 07:49:28;;;;;;;7.03;2.97;;;3.50;99.90;;;;;;4964907;29;20468;-73
2022/01/05 07:51:56;;;;;;;4.17;2.50;;;3.50;99.90;;;;;;4963476;28;20484;-72
2022/01/05 07:54:22;;;;;;;4.00;2.80;;;3.40;99.90;;;;;;4964291;29;20959;-72
2022/01/05 07:56:49;;;;;;;3.90;2.40;;;3.30;99.90;;;;;;4964806;28;20436;-70
2022/01/05 07:59:16;;;;;;;3.00;2.17;;;3.30;99.90;;;;;;4965596;29;20447;-73
2022/01/05 08:01:43;;;;;;;2.83;2.40;;;3.40;99.90;;;;;;4965335;28;20849;-72
2022/01/05 08:04:09;;;;;;;7.80;2.93;;;3.40;99.90;;;;;;4965976;28;20459;-72
2022/01/05 08:06:36;;;;;;;4.33;2.93;;;3.40;99.90;;;;;;4965682;28;20483;-73
2022/01/05 08:09:04;;;;;;;3.53;2.57;;;3.40;99.90;;;;;;4966596;28;20464;-73
2022/01/05 08:11:31;;;;;;;3.63;2.80;;;3.40;99.90;;;;;;4966351;29;20475;-73
2022/01/05 08:13:58;;;;;;;4.27;2.50;;;3.40;99.90;;;;;;4966091;28;20966;-73
2022/01/05 08:16:25;;;;;;;4.90;2.50;;;3.40;99.90;;;;;;4976200;29;20436;-73
2022/01/05 08:18:51;;;;;;;6.83;2.50;;;3.40;99.90;;;;;;4966665;29;20463;-74
2022/01/05 08:21:19;;;;;;;4.50;2.60;;;3.30;99.90;;;;;;4965402;28;20486;-72
2022/01/05 08:23:46;;;;;;;6.40;2.80;;;3.20;99.90;;;;;;4963333;28;20482;-73
2022/01/05 08:26:14;;;;;;;5.63;4.03;;;3.30;99.90;;;;;;4965548;29;20476;-73
2022/01/05 08:28:41;;;;;;;4.47;3.40;;;3.30;99.90;;;;;;4965381;28;20455;-73
2022/01/05 08:31:08;;;;;;;4.23;3.10;;;3.40;99.90;;;;;;4959225;28;20476;-72
2022/01/05 08:33:35;;;;;;;5.37;3.77;;;3.40;99.90;;;;;;4960000;29;20467;-72
2022/01/05 08:36:02;;;;;;;3.83;2.80;;;3.40;99.90;;;;;;4961851;29;20503;-72
2022/01/05 08:38:29;;;;;;;6.27;3.50;;;3.50;99.90;;;;;;4960627;29;20463;-70
2022/01/05 08:40:56;;;;;;;5.63;2.93;;;4.00;99.90;;;;;;4960582;29;20487;-70
2022/01/05 08:43:24;;;;;;;4.63;3.10;;;4.60;99.90;;;;;;4959707;29;20460;-69
2022/01/05 08:45:51;;;;;;;4.03;2.47;;;5.00;99.90;;;;;;4959853;29;20476;-73
2022/01/05 08:48:17;;;;;;;5.63;2.93;;;5.30;99.90;;;;;;4959419;29;20817;-73
2022/01/05 08:50:44;;;;;;;3.17;2.60;;;5.30;99.90;;;;;;4959155;29;20486;-73
2022/01/05 08:53:12;;;;;;;4.70;3.00;;;5.10;99.90;;;;;;4958919;29;20449;-73
2022/01/05 08:55:41;;;;;;;3.50;2.67;;;5.00;99.90;;;;;;4961159;29;20440;-72
2022/01/05 08:58:09;;;;;;;4.83;2.53;;;4.90;99.90;;;;;;4960044;29;20445;-72
2022/01/05 09:00:37;;;;;;;4.20;2.67;;;4.90;99.90;;;;;;4959170;28;20496;-73
2022/01/05 09:03:05;;;;;;;4.80;3.30;;;4.80;99.90;;;;;;4958967;29;20440;-73
2022/01/05 09:05:32;;;;;;;5.43;3.00;;;4.60;99.90;;;;;;4958990;29;20452;-72
2022/01/05 09:08:00;;;;;;;3.43;2.50;;;4.80;99.90;;;;;;4960560;29;20461;-72
2022/01/05 09:10:27;;;;;;;9.57;2.20;;;5.80;99.90;;;;;;4958861;29;20440;-72
2022/01/05 09:12:56;;;;;;;2.90;2.27;;;6.30;99.90;;;;;;4958597;29;20459;-71
2022/01/05 09:15:23;;;;;;;4.73;2.00;;;7.20;99.90;;;;;;4959112;29;20456;-72
2022/01/05 09:17:51;;;;;;;5.83;1.80;;;6.80;99.90;;;;;;4958526;29;20441;-73
2022/01/05 09:20:18;;;;;;;3.53;1.90;;;6.60;99.90;;;;;;4962011;29;20463;-74
2022/01/05 09:22:46;;;;;;;2.43;1.57;;;6.40;99.90;;;;;;4965049;29;20467;-72
2022/01/05 09:28:01;;;;;;;4.97;2.13;;;5.40;99.90;;;;;;4971053;28;20456;-73
2022/01/05 09:30:28;;;;;;;6.30;2.43;;;5.00;99.90;;;;;;4958388;29;20951;-74
2022/01/05 09:32:57;;;;;;;4.07;1.80;;;4.60;99.90;;;;;;4959483;29;20452;-73
2022/01/05 09:35:25;;;;;;;5.40;2.50;;;4.40;99.90;;;;;;4959221;28;20486;-75
2022/01/05 09:38:05;;;;;;;7.93;2.93;;;4.20;99.90;;;;;;4959227;29;20542;-75
2022/01/05 09:43:17;;;;;;;6.57;2.30;;;3.80;99.90;;;;;;4959499;29;20471;-75
2022/01/05 09:45:53;;;;;;;4.43;1.83;;;3.90;99.90;;;;;;4970274;29;20436;-73
2022/01/05 09:48:29;;;;;;;6.90;2.23;;;3.80;99.90;;;;;;4976225;29;20442;-74
2022/01/05 09:50:59;;;;;;;3.40;2.03;;;3.80;99.90;;;;;;4959321;29;20475;-73
2022/01/05 09:53:26;;;;;;;9.33;2.07;;;3.70;99.90;;;;;;4959250;29;20449;-71
2022/01/05 09:55:53;;;;;;;5.03;2.10;;;3.60;99.90;;;;;;4959691;29;20466;-74
2022/01/05 09:58:22;;;;;;;5.27;2.33;;;3.60;99.90;;;;;;4958697;29;20448;-74
2022/01/05 10:00:49;;;;;;;4.60;2.10;;;3.60;99.90;;;;;;4958998;29;20484;-73
2022/01/05 10:03:16;;;;;;;3.97;2.30;;;3.60;99.90;;;;;;4958397;28;20916;-72
2022/01/05 10:05:45;;;;;;;6.57;2.77;;;3.60;99.90;;;;;;4959048;29;20835;-73
2022/01/05 10:08:12;;;;;;;5.50;2.57;;;3.60;99.90;;;;;;4960504;28;20495;-72
2022/01/05 10:10:41;;;;;;;2.43;2.07;;;3.50;99.90;;;;;;4957728;29;21038;-73
2022/01/05 10:13:08;;;;;;;5.40;2.73;;;3.40;99.90;;;;;;4958017;29;20495;-72
2022/01/05 10:15:35;;;;;;;6.70;2.30;;;3.40;99.90;;;;;;4957850;29;20460;-73
2022/01/05 10:18:14;;;;;;;6.20;3.00;;;3.50;99.90;;;;;;4958451;29;20452;-75
2022/01/05 10:20:58;;;;;;;5.90;2.30;;;3.80;99.90;;;;;;4961967;29;20479;-75
2022/01/05 10:23:37;;;;;;;5.27;2.47;;;4.10;99.90;;;;;;4961463;29;20496;-74
2022/01/05 10:26:24;;;;;;;5.23;2.10;;;4.50;99.90;;;;;;4962807;29;20452;-74
2022/01/05 10:28:52;;;;;;;7.10;1.97;;;4.90;99.90;;;;;;4962670;29;20460;-75
2022/01/05 10:31:21;;;;;;;5.93;2.40;;;5.20;99.90;;;;;;4961937;28;20480;-74
2022/01/05 10:33:48;;;;;;;7.40;2.10;;;5.30;99.90;;;;;;4962078;29;20452;-74
2022/01/05 10:36:17;;;;;;;7.00;2.40;;;5.50;99.90;;;;;;4960183;29;20454;-72
2022/01/05 10:38:55;;;;;;;5.90;1.73;;;6.00;99.90;;;;;;4960878;29;20919;-73
2022/01/05 10:41:23;;;;;;;4.97;2.10;;;6.20;99.90;;;;;;4961122;29;20502;-76
2022/01/05 10:44:11;;;;;;;4.10;2.03;;;6.10;99.90;;;;;;4962793;29;20456;-74
2022/01/05 10:46:42;;;;;;;7.50;2.53;;;6.00;99.90;;;;;;4961822;29;20476;-74
2022/01/05 10:49:09;;;;;;;6.07;2.30;;;5.80;99.90;;;;;;4958721;29;20463;-74
2022/01/05 10:51:37;;;;;;;5.97;2.43;;;5.70;99.90;;;;;;4960885;29;20476;-75
2022/01/05 10:54:15;;;;;;;4.30;2.80;;;5.60;99.90;;;;;;4961323;28;20532;-75
2022/01/05 10:56:42;;;;;;;8.90;2.60;;;5.70;99.90;;;;;;4959997;28;20444;-77
2022/01/05 10:59:09;;;;;;;5.20;2.10;;;5.60;99.90;;;;;;4960697;29;20460;-76
2022/01/05 11:01:36;;;;;;;10.13;3.03;;;5.50;99.90;;;;;;4964649;29;20495;-75
2022/01/05 11:04:16;;;;;;;6.20;2.00;;;5.30;99.90;;;;;;4961474;29;20471;-76
2022/01/05 11:06:57;;;;;;;10.77;2.47;;;5.20;99.90;;;;;;4960872;29;20875;-74
2022/01/05 11:09:24;;;;;;;10.33;4.10;;;5.10;99.90;;;;;;4959800;29;20531;-74
2022/01/05 11:11:52;;;;;;;5.33;1.80;;;5.20;99.90;;;;;;4961156;29;20480;-76
2022/01/05 11:14:20;;;;;;;5.83;1.90;;;5.20;99.90;;;;;;4960117;29;20459;-76
2022/01/05 11:16:50;;;;;;;4.60;2.30;;;5.30;99.90;;;;;;4960852;29;20456;-76
2022/01/05 11:19:19;;;;;;;7.90;2.50;;;5.20;99.90;;;;;;4960807;29;20815;-74
2022/01/05 11:22:03;;;;;;;2.30;1.80;;;5.20;99.90;;;;;;4960863;29;20998;-75
2022/01/05 11:24:33;;;;;;;7.90;2.30;;;5.20;99.90;;;;;;4962557;29;20474;-75
2022/01/05 11:27:01;;;;;;;8.10;2.40;;;5.20;99.90;;;;;;4968158;29;20472;-74
2022/01/05 11:29:28;;;;;;;7.53;2.47;;;5.10;99.90;;;;;;4963946;29;20451;-74
2022/01/05 11:31:56;;;;;;;3.73;2.20;;;5.30;99.90;;;;;;4958575;29;20483;-75
2022/01/05 11:34:23;;;;;;;10.27;2.73;;;5.40;99.90;;;;;;4959337;29;20496;-75
2022/01/05 11:36:50;;;;;;;6.23;2.77;;;5.50;99.90;;;;;;4959742;29;20994;-74
2022/01/05 11:39:18;;;;;;;4.47;2.23;;;5.50;99.90;;;;;;4957740;29;20466;-75
2022/01/05 11:41:48;;;;;;;3.90;1.93;;;5.40;99.90;;;;;;4958535;29;20480;-76
2022/01/05 11:44:16;;;;;;;8.83;2.27;;;5.40;99.90;;;;;;4958329;29;20463;-75
2022/01/05 11:46:45;;;;;;;9.80;2.87;;;5.40;99.90;;;;;;4956659;29;20514;-76
2022/01/05 11:49:14;;;;;;;6.33;2.30;;;5.50;99.90;;;;;;4956956;28;20947;-75
2022/01/05 11:55:39;;;;;;;6.73;2.70;;;5.60;99.90;;;;;;4926524;28;20481;-74
2022/01/05 11:58:17;;;;;;;13.37;2.60;;;5.40;99.90;;;;;;4957493;29;20455;-73
2022/01/05 12:00:44;;;;;;;6.73;2.73;;;5.30;99.90;;;;;;4959046;29;20487;-74
2022/01/05 12:03:11;;;;;;;7.67;3.07;;;5.40;99.90;;;;;;4958484;29;20455;-72
2022/01/05 12:06:04;;;;;;;6.53;2.83;;;5.20;99.90;;;;;;4960479;28;20491;-72
2022/01/05 12:08:41;;;;;;;12.53;3.07;;;5.20;99.90;;;;;;4961257;28;20460;-73
2022/01/05 12:11:28;;;;;;;7.60;2.60;;;5.10;99.90;;;;;;4960329;28;20480;-73
2022/01/05 12:13:55;;;;;;;5.73;2.37;;;5.20;99.90;;;;;;4960168;29;20444;-71
2022/01/05 12:16:22;;;;;;;10.97;2.83;;;5.20;99.90;;;;;;4960376;29;20448;-72
2022/01/05 12:19:04;;;;;;;8.20;2.40;;;5.20;99.90;;;;;;4960640;28;20495;-72
2022/01/05 12:21:45;;;;;;;6.60;2.30;;;5.20;99.90;;;;;;4960124;29;20495;-72
2022/01/05 12:24:12;;;;;;;5.60;2.00;;;5.30;99.90;;;;;;4959849;29;20456;-73
2022/01/05 12:26:41;;;;;;;6.33;2.50;;;5.40;99.90;;;;;;4960827;29;20547;-74
2022/01/05 12:29:08;;;;;;;4.97;2.20;;;5.50;99.90;;;;;;4960164;29;20452;-76
2022/01/05 12:31:59;;;;;;;10.83;3.13;;;5.40;99.90;;;;;;4959463;29;20987;-76
2022/01/05 12:34:53;;;;;;;7.73;2.37;;;5.40;99.90;;;;;;4949765;28;20456;-74
2022/01/05 12:37:43;;;;;;;6.70;1.90;;;5.30;99.90;;;;;;4961365;29;20484;-70
2022/01/05 12:40:33;;;;;;;7.83;2.30;;;5.60;99.90;;;;;;4961033;28;20463;-70
2022/01/05 12:43:36;;;;;;;4.23;2.47;;;6.10;99.90;;;;;;4960010;28;20942;-71
2022/01/05 12:46:08;;;;;;;5.10;2.70;;;6.60;99.90;;;;;;4939374;28;20452;-71
2022/01/05 12:48:58;;;;;;;5.60;2.23;;;6.90;99.90;;;;;;4960657;29;20515;-74
2022/01/05 12:51:56;;;;;;;4.03;2.20;;;6.70;99.90;;;;;;4960787;29;20479;-74
2022/01/05 12:54:25;;;;;;;5.77;2.40;;;6.50;99.90;;;;;;4960836;29;20464;-73
2022/01/05 12:56:56;;;;;;;8.20;2.57;;;6.10;99.90;;;;;;4963206;29;20464;-73
2022/01/05 12:59:29;;;;;;;6.13;2.30;;;5.90;99.90;;;;;;4970783;29;20447;-72
2022/01/05 13:02:00;;;;;;;4.43;2.40;;;5.70;99.90;;;;;;4960211;29;20579;-71
2022/01/05 13:04:27;;;;;;;7.23;2.40;;;5.70;99.90;;;;;;4961385;29;20844;-71
2022/01/05 13:06:57;;;;;;;5.63;3.13;;;5.60;99.90;;;;;;4960724;29;20462;-74
2022/01/05 13:09:27;;;;;;;2.50;1.60;;;5.60;99.90;;;;;;4962408;29;20452;-75
2022/01/05 13:11:57;;;;;;;7.50;2.53;;;5.60;99.90;;;;;;4965815;29;20487;-76
2022/01/05 13:14:27;;;;;;;7.33;2.73;;;5.70;99.90;;;;;;4969699;29;20444;-76
2022/01/05 13:16:56;;;;;;;7.57;2.07;;;5.70;99.90;;;;;;4969771;28;20519;-76
2022/01/05 13:19:46;;;;;;;5.73;1.83;;;5.60;99.90;;;;;;4970088;29;20471;-75
2022/01/05 13:22:17;;;;;;;9.90;2.53;;;5.60;99.90;;;;;;4965136;28;20460;-76
2022/01/05 13:25:05;;;;;;;5.00;2.07;;;5.50;99.90;;;;;;4959259;28;20444;-76
2022/01/05 13:27:34;;;;;;;7.00;1.77;;;5.60;99.90;;;;;;4958925;29;20464;-76
2022/01/05 13:30:07;;;;;;;5.10;1.60;;;5.40;99.90;;;;;;4960928;29;20770;-75
2022/01/05 13:32:35;;;;;;;9.00;2.40;;;5.30;99.90;;;;;;4973222;28;20502;-76
2022/01/05 13:35:05;;;;;;;4.10;2.00;;;5.40;99.90;;;;;;4965657;29;20536;-76
2022/01/05 13:37:34;;;;;;;7.83;2.27;;;5.50;99.90;;;;;;4965650;28;20820;-77
2022/01/05 13:40:10;;;;;;;9.63;2.60;;;5.50;99.90;;;;;;4967410;29;20463;-77
2022/01/05 13:42:39;;;;;;;4.20;2.10;;;5.50;99.90;;;;;;4969337;28;20485;-76
2022/01/05 13:45:10;;;;;;;4.93;1.57;;;5.50;99.90;;;;;;4961631;29;20556;-75
2022/01/05 13:47:37;;;;;;;9.00;2.73;;;5.50;99.90;;;;;;4960375;29;20464;-75
2022/01/05 13:50:13;;;;;;;5.53;2.20;;;5.50;99.90;;;;;;4961393;28;20460;-75
2022/01/05 13:52:41;;;;;;;4.13;2.00;;;5.50;99.90;;;;;;4960204;29;20557;-74
2022/01/05 13:55:08;;;;;;;5.70;2.53;;;5.50;99.90;;;;;;4959016;29;20460;-74
2022/01/05 13:57:36;;;;;;;2.33;1.57;;;5.40;99.90;;;;;;4959412;29;20441;-76
2022/01/05 14:00:10;;;;;;;9.43;2.10;;;5.30;99.90;;;;;;4958920;29;20913;-74
2022/01/05 14:02:38;;;;;;;4.37;2.37;;;5.20;99.90;;;;;;4958488;28;20484;-74
2022/01/05 14:05:07;;;;;;;5.90;2.70;;;5.10;99.90;;;;;;4959030;29;20799;-74
2022/01/05 14:07:37;;;;;;;5.13;2.07;;;5.20;99.90;;;;;;4961537;29;20479;-74
2022/01/05 14:10:07;;;;;;;3.97;1.70;;;5.10;99.90;;;;;;4958678;29;20479;-74
2022/01/05 14:12:36;;;;;;;4.90;1.93;;;5.00;99.90;;;;;;4958455;29;20486;-75
2022/01/05 14:15:05;;;;;;;6.77;2.27;;;4.80;99.90;;;;;;4958660;29;20460;-74
2022/01/05 14:17:34;;;;;;;6.23;2.50;;;4.80;99.90;;;;;;4958636;29;20456;-75
2022/01/05 14:20:21;;;;;;;5.73;2.30;;;4.90;99.90;;;;;;4957551;29;20445;-74
2022/01/05 14:22:59;;;;;;;7.30;2.20;;;4.80;99.90;;;;;;4958877;29;20780;-76
2022/01/05 14:25:34;;;;;;;8.27;2.93;;;4.70;99.90;;;;;;4958990;29;20930;-75
2022/01/05 14:28:15;;;;;;;3.93;2.10;;;4.70;99.90;;;;;;4958500;28;20506;-76
2022/01/05 14:30:53;;;;;;;5.00;2.27;;;4.60;99.90;;;;;;4957877;29;20487;-74
2022/01/05 14:33:39;;;;;;;6.93;2.10;;;4.60;99.90;;;;;;4957724;29;20452;-74
2022/01/05 14:36:18;;;;;;;3.77;1.40;;;4.50;99.90;;;;;;4958063;28;20444;-74
2022/01/05 14:39:00;;;;;;;5.90;2.03;;;4.50;99.90;;;;;;4959070;29;20445;-74
2022/01/05 14:41:36;;;;;;;8.83;2.23;;;4.50;99.90;;;;;;4959374;29;20480;-75
2022/01/05 14:44:15;;;;;;;3.40;1.80;;;4.40;99.90;;;;;;4958594;29;20456;-75
2022/01/05 14:46:44;;;;;;;5.80;1.60;;;4.40;99.90;;;;;;4959061;29;20456;-75
2022/01/05 14:49:13;;;;;;;4.30;1.93;;;4.40;99.90;;;;;;4959924;29;20495;-74
2022/01/05 14:51:40;;;;;;;4.10;1.67;;;4.30;99.90;;;;;;4960446;29;20480;-73
2022/01/05 14:54:08;;;;;;;5.13;1.97;;;4.30;99.90;;;;;;4960520;28;20456;-73
2022/01/05 14:56:39;;;;;;;5.17;1.80;;;4.40;99.90;;;;;;4960912;29;20462;-74
2022/01/05 14:59:06;;;;;;;4.37;2.50;;;4.40;99.90;;;;;;4959538;29;20796;-75
2022/01/05 15:01:33;;;;;;;3.27;1.67;;;4.40;99.90;;;;;;4966712;29;20484;-75
2022/01/05 15:04:00;;;;;;;5.47;2.10;;;4.30;99.90;;;;;;4965823;29;20468;-71
2022/01/05 15:06:28;;;;;;;5.50;1.83;;;4.30;99.90;;;;;;4963592;29;20490;-75
2022/01/05 15:08:59;;;;;;;7.83;3.00;;;4.40;99.90;;;;;;4963712;29;20468;-75
2022/01/05 15:11:26;;;;;;;5.00;2.43;;;4.40;99.90;;;;;;4965640;29;20968;-72
2022/01/05 15:17:11;;;;;;;6.40;1.70;;;4.40;99.90;;;;;;4963918;29;20850;-73
2022/01/05 15:19:38;;;;;;;5.70;2.10;;;4.20;99.90;;;;;;4958233;29;20452;-72
2022/01/05 15:22:06;;;;;;;6.23;2.23;;;4.20;99.90;;;;;;4959491;29;20475;-73
2022/01/05 15:24:34;;;;;;;5.73;3.10;;;4.20;99.90;;;;;;4961007;29;20448;-75
2022/01/05 15:27:01;;;;;;;10.13;3.63;;;4.10;99.90;;;;;;4963415;29;20452;-70
2022/01/05 15:29:28;;;;;;;8.03;2.80;;;4.10;99.90;;;;;;4961082;29;20475;-71
2022/01/05 15:31:57;;;;;;;3.73;2.37;;;4.60;99.90;;;;;;4964946;28;20480;-72
2022/01/05 15:34:25;;;;;;;5.97;1.90;;;5.00;99.90;;;;;;4961804;29;20448;-70
2022/01/05 15:36:52;;;;;;;6.87;2.17;;;5.20;99.90;;;;;;4960709;29;20452;-67
2022/01/05 15:39:20;;;;;;;5.03;1.47;;;5.50;99.90;;;;;;4962001;28;20936;-67
2022/01/05 15:41:48;;;;;;;2.80;1.43;;;5.90;99.90;;;;;;4962437;29;20829;-67
2022/01/05 15:44:15;;;;;;;3.90;1.60;;;6.30;99.90;;;;;;4965996;29;20491;-68
2022/01/05 15:46:42;;;;;;;5.07;2.10;;;6.50;99.90;;;;;;4963412;29;20484;-71
2022/01/05 15:49:08;;;;;;;4.17;2.27;;;6.90;99.90;;;;;;4965708;29;20483;-65
2022/01/05 15:51:35;;;;;;;5.70;2.60;;;7.10;99.90;;;;;;4967972;29;20482;-66
2022/01/05 15:54:02;;;;;;;2.77;1.50;;;7.20;99.90;;;;;;4967727;29;20484;-67
2022/01/05 15:56:45;;;;;;;6.90;3.43;;;7.30;99.90;;;;;;4965536;29;20444;-67
2022/01/05 16:01:58;;;;;;;5.00;2.50;;;7.30;99.90;;;;;;4964336;29;20479;-71
2022/01/05 16:04:25;;;;;;;6.07;2.63;;;7.30;99.90;;;;;;4967644;29;20447;-71
2022/01/05 16:06:51;;;;;;;6.10;2.87;;;7.30;99.90;;;;;;4965052;29;20463;-70
2022/01/05 16:09:20;;;;;;;5.87;2.20;;;7.30;99.90;;;;;;4962787;29;20515;-70
2022/01/05 16:11:50;;;;;;;4.50;2.03;;;7.30;99.90;;;;;;4962173;29;20474;-70
2022/01/05 16:14:18;;;;;;;7.70;2.87;;;7.10;99.90;;;;;;4961631;29;20495;-71
2022/01/05 16:16:45;;;;;;;4.83;2.13;;;6.70;99.90;;;;;;4961770;29;20460;-68
2022/01/05 16:19:12;;;;;;;7.50;2.10;;;6.40;99.90;;;;;;4961183;29;20464;-69
2022/01/05 16:21:39;;;;;;;3.90;2.07;;;6.00;99.90;;;;;;4961323;29;20515;-69
2022/01/05 16:24:07;;;;;;;4.07;1.70;;;5.60;99.90;;;;;;4963581;29;20451;-69
2022/01/05 16:26:34;;;;;;;4.30;1.97;;;5.40;99.90;;;;;;4965379;29;20474;-69
2022/01/05 16:29:03;;;;;;;8.00;2.10;;;5.20;99.90;;;;;;4965949;29;20471;-68
2022/01/05 16:31:30;;;;;;;5.40;2.20;;;5.10;99.90;;;;;;4964328;28;20520;-66
2022/01/05 16:33:57;;;;;;;4.20;1.70;;;4.80;99.90;;;;;;4965728;29;20484;-66
2022/01/05 16:36:24;;;;;;;4.60;2.17;;;4.70;99.90;;;;;;4965820;29;20456;-66
2022/01/05 16:38:52;;;;;;;13.03;4.17;;;4.70;99.90;;;;;;4964169;29;20455;-67
2022/01/05 16:41:19;;;;;;;9.97;3.60;;;4.60;99.90;;;;;;4963615;29;20479;-66
2022/01/05 16:43:46;;;;;;;12.80;3.33;;;4.50;99.90;;;;;;4970001;28;20452;-68
2022/01/05 16:46:19;;;;;;;11.90;4.77;;;4.40;99.90;;;;;;4966188;29;20452;-68
2022/01/05 16:48:46;;;;;;;8.27;3.53;;;4.30;99.90;;;;;;4965956;29;20468;-67
2022/01/05 16:51:16;;;;;;;7.00;3.80;;;4.20;99.90;;;;;;4965194;28;20476;-67
2022/01/05 16:53:45;;;;;;;8.43;3.07;;;4.20;99.90;;;;;;4965800;29;20448;-69
2022/01/05 16:56:13;;;;;;;13.03;3.80;;;4.10;99.90;;;;;;4965901;29;20464;-68
2022/01/05 17:01:26;;;;;;;9.70;4.17;;;4.10;99.90;;;;;;4964448;29;20847;-68
2022/01/05 17:03:53;;;;;;;7.50;2.87;;;4.10;99.90;;;;;;4967544;29;20516;-67
2022/01/05 17:06:21;;;;;;;5.50;2.30;;;4.00;99.90;;;;;;4962294;29;20460;-66
2022/01/05 17:08:48;;;;;;;4.00;2.13;;;4.10;99.90;;;;;;4964340;28;20507;-68
2022/01/05 17:11:16;;;;;;;6.80;2.10;;;4.10;99.90;;;;;;4964035;28;20486;-67
2022/01/05 17:13:44;;;;;;;7.87;4.80;;;4.10;99.90;;;;;;4964469;29;20459;-66
2022/01/05 17:16:14;;;;;;;11.40;5.20;;;4.00;99.90;;;;;;4961748;29;20480;-67
2022/01/05 17:18:42;;;;;;;8.07;2.80;;;4.10;99.90;;;;;;4962977;29;20810;-67
2022/01/05 17:21:09;;;;;;;4.40;2.47;;;4.10;99.90;;;;;;4964167;29;20991;-68
2022/01/05 17:23:41;;;;;;;6.70;3.13;;;4.20;99.90;;;;;;4961761;28;20472;-67
2022/01/05 17:26:07;;;;;;;6.27;3.63;;;4.20;99.90;;;;;;4963869;29;20468;-68
2022/01/05 17:28:35;;;;;;;6.90;3.70;;;4.30;99.90;;;;;;4963405;29;20480;-69
2022/01/05 17:31:02;;;;;;;11.57;4.30;;;4.30;99.90;;;;;;4963073;28;20987;-69
2022/01/05 17:33:29;;;;;;;6.07;2.70;;;4.30;99.90;;;;;;4963512;29;20455;-68
2022/01/05 17:35:57;;;;;;;5.57;2.87;;;4.30;99.90;;;;;;4964414;29;20455;-68
2022/01/05 17:38:24;;;;;;;11.03;2.73;;;4.40;99.90;;;;;;4961932;29;20456;-67
2022/01/05 17:40:51;;;;;;;3.47;2.50;;;4.30;99.90;;;;;;4963383;29;20487;-67
2022/01/05 17:43:17;;;;;;;5.67;1.80;;;4.20;99.90;;;;;;4964663;29;20468;-68
2022/01/05 17:45:44;;;;;;;2.47;1.30;;;4.30;99.90;;;;;;4962370;29;20459;-68
2022/01/05 17:48:11;;;;;;;5.60;2.13;;;4.30;99.90;;;;;;4961090;29;20456;-68
2022/01/05 17:50:38;;;;;;;4.43;2.10;;;4.30;99.90;;;;;;4962311;29;20466;-69
2022/01/05 17:53:07;;;;;;;6.00;3.07;;;4.30;99.90;;;;;;4963812;29;20556;-69
2022/01/05 17:55:36;;;;;;;4.40;2.40;;;4.30;99.90;;;;;;4957943;29;20467;-69
2022/01/05 17:58:03;;;;;;;3.73;2.23;;;4.30;99.90;;;;;;4957496;29;20467;-70
2022/01/05 18:00:30;;;;;;;5.17;2.10;;;4.30;99.90;;;;;;4957060;29;20940;-69
2022/01/05 18:02:57;;;;;;;9.13;2.10;;;4.20;99.90;;;;;;4957116;28;20797;-69
2022/01/05 18:05:24;;;;;;;4.93;2.20;;;4.20;99.90;;;;;;4957465;29;20460;-70
2022/01/05 18:07:50;;;;;;;4.67;1.90;;;4.30;99.90;;;;;;4957559;29;20816;-71
2022/01/05 18:10:19;;;;;;;3.60;1.80;;;4.20;99.90;;;;;;4957914;29;20531;-70
2022/01/05 18:12:45;;;;;;;6.63;2.63;;;4.20;99.90;;;;;;4958865;29;20514;-71
2022/01/05 18:15:12;;;;;;;3.53;2.53;;;4.20;99.90;;;;;;4964830;29;20539;-70
2022/01/05 18:17:39;;;;;;;3.33;1.93;;;4.20;99.90;;;;;;4957150;29;20962;-71
2022/01/05 18:20:07;;;;;;;6.00;2.20;;;4.20;99.90;;;;;;4957329;29;20836;-71
2022/01/05 18:22:34;;;;;;;3.90;1.80;;;4.20;99.90;;;;;;4957192;28;20502;-70
2022/01/05 18:25:00;;;;;;;7.30;2.37;;;4.10;99.90;;;;;;4957209;29;20464;-71
2022/01/05 18:27:29;;;;;;;5.27;2.13;;;4.10;99.90;;;;;;4956662;29;20479;-70